createdAt,value
2022-12-26T00:01:25.758Z,10.76
2022-12-26T00:03:56.539Z,10.62
2022-12-26T00:06:26.931Z,10.50
2022-12-26T00:08:58.117Z,10.72
2022-12-26T00:11:30.449Z,10.78
2022-12-26T00:14:04.399Z,10.55
2022-12-26T00:16:34.325Z,10.51
2022-12-26T00:19:05.024Z,10.57
2022-12-26T00:21:33.919Z,10.60
2022-12-26T00:24:04.713Z,10.47
2022-12-26T00:26:35.936Z,10.42
2022-12-26T00:29:04.427Z,10.60
2022-12-26T00:31:38.407Z,10.07
2022-12-26T00:34:08.202Z,10.52
2022-12-26T00:36:38.241Z,10.37
2022-12-26T00:39:06.302Z,10.47
2022-12-26T00:41:34.741Z,10.25
2022-12-26T00:44:05.249Z,10.15
2022-12-26T00:46:35.276Z,10.16
2022-12-26T00:49:04.510Z,10.22
2022-12-26T00:51:34.166Z,10.19
2022-12-26T00:54:02.409Z,10.20
2022-12-26T00:56:30.463Z,9.77
2022-12-26T00:59:00.748Z,10.24
2022-12-26T01:01:30.905Z,10.30
2022-12-26T01:03:59.608Z,10.05
2022-12-26T01:06:27.605Z,10.24
2022-12-26T01:08:57.052Z,10.30
2022-12-26T01:11:38.894Z,10.09
2022-12-26T01:14:08.781Z,10.42
2022-12-26T01:16:36.878Z,10.38
2022-12-26T01:19:05.277Z,10.14
2022-12-26T01:21:33.827Z,10.35
2022-12-26T01:24:05.699Z,9.65
2022-12-26T01:26:33.603Z,10.00
2022-12-26T01:29:01.493Z,10.42
2022-12-26T01:31:29.569Z,9.51
2022-12-26T01:34:01.940Z,10.48
2022-12-26T01:36:29.943Z,10.35
2022-12-26T01:38:57.958Z,10.39
2022-12-26T01:41:27.997Z,9.76
2022-12-26T01:43:58.578Z,10.26
2022-12-26T01:46:33.979Z,10.05
2022-12-26T01:49:07.946Z,10.27
2022-12-26T01:51:45.897Z,10.27
2022-12-26T01:54:40.002Z,10.28
2022-12-26T01:57:07.963Z,9.87
2022-12-26T01:59:40.511Z,10.30
2022-12-26T02:02:10.072Z,10.34
2022-12-26T02:04:59.973Z,10.35
2022-12-26T02:07:33.609Z,10.28
2022-12-26T02:10:01.860Z,10.38
2022-12-26T02:12:38.439Z,10.40
2022-12-26T02:15:11.940Z,10.31
2022-12-26T02:17:41.570Z,10.38
2022-12-26T02:20:19.381Z,10.26
2022-12-26T02:23:10.591Z,10.20
2022-12-26T02:26:17.975Z,10.22
2022-12-26T02:29:21.836Z,10.19
2022-12-26T02:32:01.473Z,10.10
2022-12-26T02:34:40.385Z,9.99
2022-12-26T02:37:24.132Z,10.19
2022-12-26T02:40:05.234Z,10.18
2022-12-26T02:42:50.347Z,10.21
2022-12-26T02:45:44.749Z,10.12
2022-12-26T02:48:21.360Z,10.23
2022-12-26T02:51:20.973Z,10.18
2022-12-26T02:54:17.442Z,10.17
2022-12-26T02:57:08.775Z,10.11
2022-12-26T03:00:04.706Z,10.13
2022-12-26T03:02:56.652Z,10.22
2022-12-26T03:05:49.656Z,10.13
2022-12-26T03:08:43.021Z,10.22
2022-12-26T03:11:28.963Z,10.20
2022-12-26T03:14:06.487Z,9.64
2022-12-26T03:16:53.106Z,9.88
2022-12-26T03:19:23.470Z,10.17
2022-12-26T03:21:53.131Z,10.20
2022-12-26T03:24:23.690Z,10.16
2022-12-26T03:26:54.385Z,10.12
2022-12-26T03:29:42.180Z,10.07
2022-12-26T03:32:12.935Z,9.98
2022-12-26T03:34:45.507Z,10.14
2022-12-26T03:37:50.368Z,10.20
2022-12-26T03:40:48.059Z,10.14
2022-12-26T03:43:43.429Z,10.19
2022-12-26T03:46:37.209Z,10.13
2022-12-26T03:49:28.231Z,10.18
2022-12-26T03:52:20.631Z,10.16
2022-12-26T03:55:14.082Z,10.31
2022-12-26T03:58:07.054Z,10.05
2022-12-26T04:00:53.978Z,9.91
2022-12-26T04:03:42.363Z,10.14
2022-12-26T04:06:36.174Z,10.06
2022-12-26T04:09:27.327Z,10.17
2022-12-26T04:12:21.552Z,10.02
2022-12-26T04:15:13.866Z,10.05
2022-12-26T04:18:06.407Z,10.01
2022-12-26T04:20:40.913Z,9.90
2022-12-26T04:23:32.107Z,9.93
2022-12-26T04:26:25.029Z,9.94
2022-12-26T04:29:11.860Z,9.87
2022-12-26T04:32:06.292Z,9.84
2022-12-26T04:35:00.706Z,10.22
2022-12-26T04:37:52.327Z,9.52
2022-12-26T04:40:44.880Z,9.50
2022-12-26T04:43:49.125Z,9.91
2022-12-26T04:46:23.673Z,10.05
2022-12-26T04:49:12.071Z,10.08
2022-12-26T04:51:40.761Z,9.85
2022-12-26T04:54:08.990Z,9.98
2022-12-26T04:56:36.944Z,9.97
2022-12-26T04:59:06.433Z,9.65
2022-12-26T05:01:53.464Z,10.22
2022-12-26T05:04:39.080Z,10.25
2022-12-26T05:07:30.302Z,10.15
2022-12-26T05:09:58.281Z,10.03
2022-12-26T05:12:26.272Z,10.19
2022-12-26T05:14:54.475Z,10.06
2022-12-26T05:17:41.218Z,10.26
2022-12-26T05:20:44.288Z,10.03
2022-12-26T05:23:37.149Z,10.31
2022-12-26T05:26:23.682Z,10.26
2022-12-26T05:28:58.834Z,10.09
2022-12-26T05:31:32.959Z,10.08
2022-12-26T05:34:05.847Z,10.11
2022-12-26T05:36:38.415Z,10.09
2022-12-26T05:39:07.553Z,10.15
2022-12-26T05:41:37.337Z,10.10
2022-12-26T05:44:06.275Z,10.24
2022-12-26T05:46:34.692Z,10.06
2022-12-26T05:49:07.825Z,10.14
2022-12-26T05:51:38.915Z,10.34
2022-12-26T05:54:07.115Z,9.93
2022-12-26T05:56:35.090Z,10.19
2022-12-26T05:59:03.328Z,10.02
2022-12-26T06:01:31.918Z,10.14
2022-12-26T06:04:05.820Z,10.16
2022-12-26T06:06:35.239Z,10.24
2022-12-26T06:09:03.240Z,10.24
2022-12-26T06:11:31.553Z,10.13
2022-12-26T06:14:00.088Z,10.23
2022-12-26T06:16:28.226Z,10.03
2022-12-26T06:18:56.302Z,10.25
2022-12-26T06:21:25.200Z,10.13
2022-12-26T06:23:54.674Z,10.19
2022-12-26T06:26:22.734Z,9.88
2022-12-26T06:28:50.759Z,10.15
2022-12-26T06:31:21.679Z,10.19
2022-12-26T06:33:51.598Z,10.26
2022-12-26T06:36:21.733Z,10.10
2022-12-26T06:38:50.835Z,10.06
2022-12-26T06:41:22.574Z,10.17
2022-12-26T06:43:50.821Z,10.25
2022-12-26T06:46:21.096Z,9.91
2022-12-26T06:48:49.219Z,10.13
2022-12-26T06:51:20.070Z,10.15
2022-12-26T06:53:49.253Z,9.98
2022-12-26T06:56:18.980Z,9.87
2022-12-26T06:58:48.887Z,10.07
2022-12-26T07:01:19.821Z,9.70
2022-12-26T07:03:51.572Z,9.89
2022-12-26T07:06:25.027Z,9.78
2022-12-26T07:08:53.718Z,10.04
2022-12-26T07:11:25.315Z,9.23
2022-12-26T07:13:56.010Z,9.87
2022-12-26T07:16:24.997Z,9.90
2022-12-26T07:18:56.188Z,9.76
2022-12-26T07:21:25.476Z,9.77
2022-12-26T07:23:55.539Z,9.97
2022-12-26T07:26:24.217Z,10.01
2022-12-26T07:28:57.168Z,9.90
2022-12-26T07:31:26.460Z,9.91
2022-12-26T07:33:56.235Z,9.46
2022-12-26T07:36:25.153Z,9.91
2022-12-26T07:38:53.474Z,9.95
2022-12-26T07:41:39.216Z,9.87
2022-12-26T07:44:09.963Z,9.84
2022-12-26T07:46:38.228Z,9.76
2022-12-26T07:49:06.523Z,9.80
2022-12-26T07:51:34.941Z,9.74
2022-12-26T07:54:08.865Z,9.71
2022-12-26T07:56:41.121Z,9.78
2022-12-26T07:59:13.102Z,9.77
2022-12-26T08:01:41.229Z,9.74
2022-12-26T08:04:09.545Z,9.77
2022-12-26T08:06:38.042Z,9.83
2022-12-26T08:09:06.437Z,9.96
2022-12-26T08:11:36.415Z,9.93
2022-12-26T08:14:04.581Z,9.97
2022-12-26T08:16:34.200Z,9.91
2022-12-26T08:19:04.395Z,9.78
2022-12-26T08:21:32.488Z,9.78
2022-12-26T08:24:00.795Z,9.81
2022-12-26T08:26:29.197Z,9.51
2022-12-26T08:28:58.118Z,9.86
2022-12-26T08:34:00.473Z,9.78
2022-12-26T08:36:30.527Z,9.40
2022-12-26T08:38:59.223Z,9.70
2022-12-26T08:41:27.230Z,9.02
2022-12-26T08:46:43.554Z,9.77
2022-12-26T08:49:13.570Z,9.80
2022-12-26T08:51:41.565Z,9.93
2022-12-26T08:54:09.656Z,9.89
2022-12-26T08:56:37.640Z,9.67
2022-12-26T08:59:05.751Z,9.67
2022-12-26T09:01:41.046Z,9.70
2022-12-26T09:04:09.424Z,9.81
2022-12-26T09:06:42.158Z,9.88
2022-12-26T09:09:12.848Z,9.80
2022-12-26T09:11:41.701Z,9.94
2022-12-26T09:14:10.295Z,9.75
2022-12-26T09:16:49.554Z,9.73
2022-12-26T09:19:19.097Z,9.86
2022-12-26T09:21:49.293Z,9.91
2022-12-26T09:24:21.390Z,10.02
2022-12-26T09:26:49.711Z,9.98
2022-12-26T09:29:17.798Z,9.75
2022-12-26T09:31:45.947Z,9.92
2022-12-26T09:34:14.057Z,10.00
2022-12-26T09:36:42.085Z,10.01
2022-12-26T09:39:15.463Z,9.94
2022-12-26T09:41:55.311Z,9.99
2022-12-26T09:44:28.796Z,10.12
2022-12-26T09:47:08.843Z,10.06
2022-12-26T09:49:43.400Z,10.13
2022-12-26T09:52:19.380Z,9.99
2022-12-26T09:54:53.933Z,9.64
2022-12-26T09:57:27.266Z,10.07
2022-12-26T10:00:01.021Z,10.26
2022-12-26T10:02:30.859Z,10.08
2022-12-26T10:04:59.016Z,10.31
2022-12-26T10:07:33.218Z,10.39
2022-12-26T10:10:10.420Z,10.46
2022-12-26T10:12:48.037Z,10.46
2022-12-26T10:15:35.895Z,10.47
2022-12-26T10:18:17.095Z,10.64
2022-12-26T10:20:58.340Z,10.69
2022-12-26T10:23:33.550Z,10.65
2022-12-26T10:26:11.435Z,10.72
2022-12-26T10:28:46.932Z,10.65
2022-12-26T10:31:21.094Z,10.72
2022-12-26T10:33:55.657Z,10.89
2022-12-26T10:36:32.323Z,10.82
2022-12-26T10:39:02.388Z,10.99
2022-12-26T10:41:40.262Z,10.94
2022-12-26T10:44:12.783Z,10.57
2022-12-26T10:46:56.060Z,10.99
2022-12-26T10:49:29.997Z,11.03
2022-12-26T10:52:00.344Z,11.00
2022-12-26T10:54:30.436Z,11.15
2022-12-26T10:57:02.027Z,11.23
2022-12-26T10:59:48.514Z,11.23
2022-12-26T11:02:25.064Z,11.05
2022-12-26T11:05:16.093Z,10.92
2022-12-26T11:07:53.550Z,10.91
2022-12-26T11:10:29.243Z,10.94
2022-12-26T11:13:03.130Z,10.96
2022-12-26T11:15:39.072Z,10.80
2022-12-26T11:18:16.186Z,10.64
2022-12-26T11:20:45.321Z,10.80
2022-12-26T11:23:24.415Z,10.99
2022-12-26T11:25:54.937Z,10.72
2022-12-26T11:28:31.582Z,10.68
2022-12-26T11:31:11.393Z,10.86
2022-12-26T11:33:45.055Z,10.81
2022-12-26T11:36:22.122Z,10.68
2022-12-26T11:38:54.454Z,10.84
2022-12-26T11:41:39.996Z,10.90
2022-12-26T11:44:27.510Z,10.79
2022-12-26T11:47:03.050Z,10.96
2022-12-26T11:49:37.059Z,10.96
2022-12-26T11:52:34.553Z,10.86
2022-12-26T11:55:02.725Z,11.00
2022-12-26T11:57:32.995Z,10.83
2022-12-26T12:00:17.659Z,10.90
2022-12-26T12:02:45.931Z,10.85
2022-12-26T12:05:22.175Z,11.00
2022-12-26T12:08:04.681Z,11.02
2022-12-26T12:11:12.352Z,10.94
2022-12-26T12:13:53.421Z,10.96
2022-12-26T12:16:39.237Z,10.94
2022-12-26T12:19:20.025Z,11.04
2022-12-26T12:22:00.734Z,10.95
2022-12-26T12:24:40.034Z,10.99
2022-12-26T12:27:14.664Z,10.80
2022-12-26T12:30:14.756Z,10.78
2022-12-26T12:32:58.823Z,10.85
2022-12-26T12:35:40.799Z,10.45
2022-12-26T12:38:25.707Z,10.80
2022-12-26T12:41:02.414Z,10.77
2022-12-26T12:43:42.719Z,10.82
2022-12-26T12:46:18.304Z,10.71
2022-12-26T12:49:02.242Z,10.65
2022-12-26T12:51:38.690Z,10.57
2022-12-26T12:54:39.890Z,10.58
2022-12-26T12:57:16.750Z,10.50
2022-12-26T13:00:01.238Z,10.36
2022-12-26T13:02:33.761Z,10.08
2022-12-26T13:05:15.733Z,10.42
2022-12-26T13:07:49.118Z,10.24
2022-12-26T13:10:23.691Z,10.37
2022-12-26T13:12:54.458Z,10.51
2022-12-26T13:15:32.782Z,10.47
2022-12-26T13:18:05.112Z,10.52
2022-12-26T13:20:41.485Z,10.44
2022-12-26T13:23:37.051Z,10.53
2022-12-26T13:26:10.812Z,10.45
2022-12-26T13:28:50.151Z,10.53
2022-12-26T13:31:18.683Z,10.57
2022-12-26T13:33:47.509Z,10.61
2022-12-26T13:36:45.493Z,10.59
2022-12-26T13:39:31.661Z,10.68
2022-12-26T13:42:22.342Z,10.67
2022-12-26T13:44:53.659Z,10.63
2022-12-26T13:47:36.438Z,10.60
2022-12-26T13:50:42.096Z,10.61
2022-12-26T13:53:29.845Z,10.60
2022-12-26T13:55:59.284Z,10.56
2022-12-26T13:58:54.700Z,10.39
2022-12-26T14:01:37.453Z,10.64
2022-12-26T14:04:35.124Z,10.68
2022-12-26T14:07:16.067Z,10.03
2022-12-26T14:09:58.320Z,10.05
2022-12-26T14:12:48.282Z,10.40
2022-12-26T14:15:46.799Z,10.09
2022-12-26T14:18:26.299Z,10.10
2022-12-26T14:21:10.391Z,9.86
2022-12-26T14:23:47.305Z,9.77
2022-12-26T14:26:29.019Z,9.97
2022-12-26T14:29:06.354Z,9.66
2022-12-26T14:31:43.184Z,9.72
2022-12-26T14:34:24.449Z,9.65
2022-12-26T14:36:58.622Z,9.66
2022-12-26T14:39:36.792Z,9.70
2022-12-26T14:42:39.511Z,9.65
2022-12-26T14:45:34.844Z,9.49
2022-12-26T14:48:03.108Z,9.16
2022-12-26T14:50:44.695Z,9.07
2022-12-26T14:53:29.785Z,8.75
2022-12-26T14:55:59.578Z,8.83
2022-12-26T14:58:38.243Z,8.72
2022-12-26T15:01:47.391Z,8.45
2022-12-26T15:05:00.141Z,8.29
2022-12-26T15:07:58.624Z,8.21
2022-12-26T15:10:47.424Z,8.22
2022-12-26T15:13:53.389Z,8.28
2022-12-26T15:16:32.699Z,7.86
2022-12-26T15:19:39.271Z,8.01
2022-12-26T15:22:38.467Z,7.95
2022-12-26T15:25:32.168Z,7.91
2022-12-26T15:28:31.262Z,7.86
2022-12-26T15:31:20.464Z,7.95
2022-12-26T15:33:57.249Z,7.61
2022-12-26T15:36:36.068Z,7.73
2022-12-26T15:39:14.896Z,7.24
2022-12-26T15:41:48.237Z,7.68
2022-12-26T15:44:25.890Z,7.52
2022-12-26T15:47:06.441Z,7.69
2022-12-26T15:49:55.614Z,7.66
2022-12-26T15:52:34.840Z,7.61
2022-12-26T15:55:26.266Z,7.69
2022-12-26T15:57:59.561Z,7.40
2022-12-26T16:00:31.166Z,7.57
2022-12-26T16:03:23.401Z,7.59
2022-12-26T16:06:00.257Z,6.84
2022-12-26T16:08:49.173Z,7.58
2022-12-26T16:11:22.462Z,7.71
2022-12-26T16:13:57.514Z,7.52
2022-12-26T16:16:28.299Z,7.58
2022-12-26T16:18:58.350Z,7.70
2022-12-26T16:21:47.216Z,7.53
2022-12-26T16:24:19.839Z,7.55
2022-12-26T16:26:48.282Z,7.46
2022-12-26T16:29:21.626Z,7.13
2022-12-26T16:31:49.481Z,7.35
2022-12-26T16:34:21.537Z,7.52
2022-12-26T16:36:51.137Z,7.47
2022-12-26T16:39:24.144Z,7.49
2022-12-26T16:42:01.216Z,7.35
2022-12-26T16:44:33.355Z,7.38
2022-12-26T16:47:03.043Z,7.47
2022-12-26T16:49:33.617Z,7.28
2022-12-26T16:52:02.043Z,7.14
2022-12-26T16:54:38.697Z,7.49
2022-12-26T16:57:11.053Z,7.55
2022-12-26T16:59:45.355Z,7.49
2022-12-26T17:02:21.086Z,7.50
2022-12-26T17:05:00.196Z,7.02
2022-12-26T17:07:29.055Z,7.24
2022-12-26T17:10:00.618Z,6.80
2022-12-26T17:12:32.266Z,7.05
2022-12-26T17:15:02.092Z,7.32
2022-12-26T17:17:33.500Z,7.37
2022-12-26T17:20:33.936Z,7.31
2022-12-26T17:23:21.805Z,7.16
2022-12-26T17:25:50.971Z,7.18
2022-12-26T17:28:24.199Z,7.14
2022-12-26T17:30:54.365Z,6.81
2022-12-26T17:33:25.504Z,7.29
2022-12-26T17:38:48.428Z,7.36
2022-12-26T17:41:17.955Z,7.17
2022-12-26T17:43:47.050Z,7.16
2022-12-26T17:46:17.334Z,7.24
2022-12-26T17:48:45.800Z,7.16
2022-12-26T17:51:17.519Z,6.91
2022-12-26T17:53:49.762Z,6.80
2022-12-26T17:56:21.222Z,6.90
2022-12-26T17:58:49.610Z,7.04
2022-12-26T18:01:21.575Z,6.96
2022-12-26T18:03:52.028Z,6.94
2022-12-26T18:06:23.056Z,6.98
2022-12-26T18:08:50.930Z,6.87
2022-12-26T18:11:18.806Z,6.99
2022-12-26T18:13:46.935Z,7.00
2022-12-26T18:16:17.900Z,6.96
2022-12-26T18:18:47.883Z,6.91
2022-12-26T18:21:17.110Z,6.96
2022-12-26T18:23:46.479Z,6.94
2022-12-26T18:26:19.854Z,6.90
2022-12-26T18:28:49.999Z,7.08
2022-12-26T18:31:18.195Z,7.16
2022-12-26T18:33:46.145Z,6.99
2022-12-26T18:36:15.245Z,6.92
2022-12-26T18:38:43.347Z,6.93
2022-12-26T18:41:15.243Z,7.00
2022-12-26T18:43:43.235Z,6.72
2022-12-26T18:46:16.400Z,6.61
2022-12-26T18:48:44.351Z,6.48
2022-12-26T18:51:12.469Z,6.55
2022-12-26T18:53:40.529Z,6.16
2022-12-26T18:56:13.298Z,6.36
2022-12-26T18:58:42.851Z,6.53
2022-12-26T19:01:13.877Z,6.64
2022-12-26T19:03:42.172Z,6.51
2022-12-26T19:06:14.263Z,6.44
2022-12-26T19:08:42.660Z,6.31
2022-12-26T19:11:13.844Z,5.67
2022-12-26T19:13:43.590Z,6.08
2022-12-26T19:16:12.084Z,6.08
2022-12-26T19:18:40.083Z,5.78
2022-12-26T19:21:12.962Z,5.81
2022-12-26T19:23:41.285Z,6.02
2022-12-26T19:26:10.624Z,5.73
2022-12-26T19:28:39.354Z,5.66
2022-12-26T19:31:09.985Z,5.77
2022-12-26T19:33:38.264Z,5.94
2022-12-26T19:36:07.605Z,5.98
2022-12-26T19:38:36.146Z,6.07
2022-12-26T19:41:05.110Z,6.11
2022-12-26T19:43:33.323Z,5.70
2022-12-26T19:46:02.092Z,5.51
2022-12-26T19:48:32.112Z,5.93
2022-12-26T19:51:01.527Z,5.87
2022-12-26T19:53:29.665Z,5.90
2022-12-26T19:55:57.847Z,5.93
2022-12-26T19:58:26.259Z,5.90
2022-12-26T20:00:54.351Z,5.86
2022-12-26T20:03:22.521Z,5.89
2022-12-26T20:05:51.983Z,5.87
2022-12-26T20:08:20.556Z,5.90
2022-12-26T20:10:48.654Z,5.78
2022-12-26T20:13:16.667Z,5.87
2022-12-26T20:15:44.597Z,5.62
2022-12-26T20:18:15.064Z,5.69
2022-12-26T20:20:43.384Z,5.67
2022-12-26T20:23:12.717Z,5.74
2022-12-26T20:25:40.617Z,5.63
2022-12-26T20:28:08.635Z,5.74
2022-12-26T20:30:36.689Z,5.56
2022-12-26T20:33:04.663Z,5.68
2022-12-26T20:35:32.764Z,5.45
2022-12-26T20:38:00.592Z,5.58
2022-12-26T20:40:30.059Z,5.14
2022-12-26T20:42:58.048Z,5.63
2022-12-26T20:45:26.087Z,5.56
2022-12-26T20:47:54.022Z,5.21
2022-12-26T20:50:22.829Z,5.35
2022-12-26T20:52:50.664Z,5.25
2022-12-26T20:55:29.488Z,5.31
2022-12-26T20:57:57.730Z,5.24
2022-12-26T21:00:25.797Z,4.89
2022-12-26T21:02:57.853Z,5.03
2022-12-26T21:05:27.447Z,5.05
2022-12-26T21:07:56.897Z,5.15
2022-12-26T21:10:30.436Z,5.19
2022-12-26T21:12:59.432Z,5.22
2022-12-26T21:15:28.535Z,5.14
2022-12-26T21:18:04.027Z,5.20
2022-12-26T21:20:33.733Z,5.10
2022-12-26T21:23:03.348Z,5.14
2022-12-26T21:25:35.954Z,5.12
2022-12-26T21:28:05.757Z,5.02
2022-12-26T21:30:34.522Z,4.78
2022-12-26T21:33:06.769Z,4.60
2022-12-26T21:35:38.751Z,4.48
2022-12-26T21:38:07.600Z,4.68
2022-12-26T21:40:38.897Z,4.79
2022-12-26T21:43:08.148Z,4.52
2022-12-26T21:45:38.453Z,4.50
2022-12-26T21:48:07.671Z,4.38
2022-12-26T21:50:38.099Z,4.40
2022-12-26T21:53:07.554Z,4.20
2022-12-26T21:55:38.974Z,4.23
2022-12-26T21:58:07.743Z,4.32
2022-12-26T22:00:36.212Z,4.17
2022-12-26T22:03:23.281Z,4.24
2022-12-26T22:05:51.768Z,4.30
2022-12-26T22:08:20.337Z,4.37
2022-12-26T22:11:21.817Z,4.47
2022-12-26T22:13:50.210Z,4.34
2022-12-26T22:16:19.963Z,4.45
2022-12-26T22:18:49.080Z,4.47
2022-12-26T22:21:20.283Z,4.56
2022-12-26T22:23:50.548Z,4.44
2022-12-26T22:26:21.386Z,4.62
2022-12-26T22:28:50.364Z,4.83
2022-12-26T22:31:21.013Z,4.76
2022-12-26T22:33:49.844Z,4.71
2022-12-26T22:36:21.219Z,4.91
2022-12-26T22:38:52.035Z,4.74
2022-12-26T22:41:21.593Z,4.56
2022-12-26T22:43:51.098Z,4.25
2022-12-26T22:46:20.504Z,4.59
2022-12-26T22:48:48.599Z,4.57
2022-12-26T22:51:18.815Z,4.38
2022-12-26T22:53:47.085Z,4.58
2022-12-26T22:56:15.380Z,4.18
2022-12-26T22:58:45.443Z,4.68
2022-12-26T23:01:14.860Z,4.62
2022-12-26T23:03:43.054Z,4.55
2022-12-26T23:06:20.811Z,4.46
2022-12-26T23:08:50.213Z,4.25
2022-12-26T23:11:19.002Z,4.29
2022-12-26T23:13:49.382Z,4.16
2022-12-26T23:16:27.254Z,3.55
2022-12-26T23:19:22.459Z,4.02
2022-12-26T23:21:51.636Z,3.47
2022-12-26T23:24:21.762Z,4.06
2022-12-26T23:26:51.093Z,4.13
2022-12-26T23:29:40.848Z,3.78
2022-12-26T23:32:11.617Z,3.94
2022-12-26T23:34:39.395Z,4.12
2022-12-26T23:37:07.125Z,3.93
2022-12-26T23:39:35.003Z,4.19
2022-12-26T23:42:03.275Z,4.12
2022-12-26T23:44:32.620Z,3.89
2022-12-26T23:47:01.005Z,4.02
2022-12-26T23:49:29.298Z,4.20
2022-12-26T23:51:57.155Z,4.16
2022-12-26T23:54:25.090Z,4.16
2022-12-26T23:56:53.120Z,4.27
2022-12-26T23:59:21.612Z,4.05
